sensor_id;sensor_type;location;lat;lon;timestamp;P1;durP1;ratioP1;P2;durP2;ratioP2
44137;SDS011;29800;55.942;37.314;2023-02-08T00:02:18;12.38;;;6.63;;
44137;SDS011;29800;55.942;37.314;2023-02-08T00:04:44;11.38;;;6.43;;
44137;SDS011;29800;55.942;37.314;2023-02-08T00:07:10;10.95;;;5.60;;
44137;SDS011;29800;55.942;37.314;2023-02-08T00:09:36;11.68;;;6.68;;
44137;SDS011;29800;55.942;37.314;2023-02-08T00:12:02;11.55;;;6.55;;
44137;SDS011;29800;55.942;37.314;2023-02-08T00:14:29;11.82;;;6.57;;
44137;SDS011;29800;55.942;37.314;2023-02-08T00:16:55;16.15;;;6.57;;
44137;SDS011;29800;55.942;37.314;2023-02-08T00:19:21;11.00;;;6.32;;
44137;SDS011;29800;55.942;37.314;2023-02-08T00:21:47;10.93;;;6.65;;
44137;SDS011;29800;55.942;37.314;2023-02-08T00:24:13;13.07;;;6.90;;
44137;SDS011;29800;55.942;37.314;2023-02-08T00:26:39;12.18;;;6.60;;
44137;SDS011;29800;55.942;37.314;2023-02-08T00:29:05;13.10;;;6.28;;
44137;SDS011;29800;55.942;37.314;2023-02-08T00:31:33;13.80;;;7.22;;
44137;SDS011;29800;55.942;37.314;2023-02-08T00:33:59;10.98;;;6.13;;
44137;SDS011;29800;55.942;37.314;2023-02-08T00:36:25;13.43;;;6.38;;
44137;SDS011;29800;55.942;37.314;2023-02-08T00:38:51;11.38;;;6.03;;
44137;SDS011;29800;55.942;37.314;2023-02-08T00:41:17;9.90;;;6.47;;
44137;SDS011;29800;55.942;37.314;2023-02-08T00:43:46;11.88;;;6.43;;
44137;SDS011;29800;55.942;37.314;2023-02-08T00:46:12;11.23;;;6.30;;
44137;SDS011;29800;55.942;37.314;2023-02-08T00:48:38;11.70;;;6.72;;
44137;SDS011;29800;55.942;37.314;2023-02-08T00:51:06;13.90;;;6.80;;
44137;SDS011;29800;55.942;37.314;2023-02-08T00:53:37;13.40;;;6.75;;
44137;SDS011;29800;55.942;37.314;2023-02-08T00:56:05;13.30;;;7.00;;
44137;SDS011;29800;55.942;37.314;2023-02-08T00:58:33;12.77;;;6.95;;
44137;SDS011;29800;55.942;37.314;2023-02-08T01:00:59;13.00;;;6.60;;
44137;SDS011;29800;55.942;37.314;2023-02-08T01:03:26;11.63;;;6.07;;
44137;SDS011;29800;55.942;37.314;2023-02-08T01:05:52;12.98;;;6.70;;
44137;SDS011;29800;55.942;37.314;2023-02-08T01:08:19;11.25;;;6.45;;
44137;SDS011;29800;55.942;37.314;2023-02-08T01:10:47;11.35;;;5.18;;
44137;SDS011;29800;55.942;37.314;2023-02-08T01:13:13;9.27;;;5.47;;
44137;SDS011;29800;55.942;37.314;2023-02-08T01:15:39;11.90;;;6.15;;
44137;SDS011;29800;55.942;37.314;2023-02-08T01:18:06;12.35;;;7.35;;
44137;SDS011;29800;55.942;37.314;2023-02-08T01:20:33;13.88;;;7.38;;
44137;SDS011;29800;55.942;37.314;2023-02-08T01:23:02;12.38;;;6.35;;
44137;SDS011;29800;55.942;37.314;2023-02-08T01:25:31;9.38;;;5.45;;
44137;SDS011;29800;55.942;37.314;2023-02-08T01:27:57;8.43;;;5.18;;
44137;SDS011;29800;55.942;37.314;2023-02-08T01:30:23;9.18;;;5.13;;
44137;SDS011;29800;55.942;37.314;2023-02-08T01:32:49;11.38;;;5.93;;
44137;SDS011;29800;55.942;37.314;2023-02-08T01:35:15;11.18;;;5.50;;
44137;SDS011;29800;55.942;37.314;2023-02-08T01:37:41;8.80;;;5.10;;
44137;SDS011;29800;55.942;37.314;2023-02-08T01:40:08;8.55;;;5.22;;
44137;SDS011;29800;55.942;37.314;2023-02-08T01:42:34;10.02;;;5.60;;
44137;SDS011;29800;55.942;37.314;2023-02-08T01:47:46;9.75;;;5.32;;
44137;SDS011;29800;55.942;37.314;2023-02-08T01:50:35;9.85;;;5.10;;
44137;SDS011;29800;55.942;37.314;2023-02-08T01:53:08;9.25;;;5.03;;
44137;SDS011;29800;55.942;37.314;2023-02-08T01:55:35;9.55;;;5.00;;
44137;SDS011;29800;55.942;37.314;2023-02-08T01:58:05;7.60;;;4.57;;
44137;SDS011;29800;55.942;37.314;2023-02-08T02:00:34;8.38;;;4.68;;
44137;SDS011;29800;55.942;37.314;2023-02-08T02:03:00;7.93;;;4.45;;
44137;SDS011;29800;55.942;37.314;2023-02-08T02:05:31;8.25;;;4.55;;
44137;SDS011;29800;55.942;37.314;2023-02-08T02:08:02;6.93;;;4.13;;
44137;SDS011;29800;55.942;37.314;2023-02-08T02:10:33;7.70;;;4.18;;
44137;SDS011;29800;55.942;37.314;2023-02-08T02:13:05;6.85;;;3.90;;
44137;SDS011;29800;55.942;37.314;2023-02-08T02:15:34;6.60;;;3.95;;
44137;SDS011;29800;55.942;37.314;2023-02-08T02:18:01;8.18;;;4.13;;
44137;SDS011;29800;55.942;37.314;2023-02-08T02:46:07;9.55;;;5.18;;
44137;SDS011;29800;55.942;37.314;2023-02-08T02:49:01;8.30;;;4.80;;
44137;SDS011;29800;55.942;37.314;2023-02-08T02:54:48;6.50;;;3.88;;
44137;SDS011;29800;55.942;37.314;2023-02-08T02:57:18;8.60;;;4.38;;
44137;SDS011;29800;55.942;37.314;2023-02-08T02:59:50;7.53;;;4.05;;
44137;SDS011;29800;55.942;37.314;2023-02-08T03:02:16;7.10;;;4.05;;
44137;SDS011;29800;55.942;37.314;2023-02-08T03:04:46;6.93;;;4.05;;
44137;SDS011;29800;55.942;37.314;2023-02-08T03:12:58;8.02;;;4.70;;
44137;SDS011;29800;55.942;37.314;2023-02-08T03:15:34;7.65;;;4.72;;
44137;SDS011;29800;55.942;37.314;2023-02-08T03:18:29;8.15;;;4.47;;
44137;SDS011;29800;55.942;37.314;2023-02-08T03:32:12;7.63;;;4.70;;
44137;SDS011;29800;55.942;37.314;2023-02-08T03:37:42;8.75;;;4.45;;
44137;SDS011;29800;55.942;37.314;2023-02-08T03:43:06;7.45;;;4.15;;
44137;SDS011;29800;55.942;37.314;2023-02-08T03:45:47;7.32;;;4.50;;
44137;SDS011;29800;55.942;37.314;2023-02-08T03:48:17;8.25;;;4.25;;
44137;SDS011;29800;55.942;37.314;2023-02-08T03:50:47;8.60;;;5.03;;
44137;SDS011;29800;55.942;37.314;2023-02-08T03:53:17;9.85;;;4.53;;
44137;SDS011;29800;55.942;37.314;2023-02-08T03:55:46;7.07;;;4.07;;
44137;SDS011;29800;55.942;37.314;2023-02-08T03:58:31;7.93;;;4.10;;
44137;SDS011;29800;55.942;37.314;2023-02-08T04:01:08;8.55;;;4.68;;
44137;SDS011;29800;55.942;37.314;2023-02-08T04:03:42;8.32;;;4.53;;
44137;SDS011;29800;55.942;37.314;2023-02-08T04:06:11;10.57;;;5.13;;
44137;SDS011;29800;55.942;37.314;2023-02-08T04:08:37;7.75;;;4.13;;
44137;SDS011;29800;55.942;37.314;2023-02-08T04:11:03;9.48;;;4.63;;
44137;SDS011;29800;55.942;37.314;2023-02-08T04:13:29;11.52;;;4.85;;
44137;SDS011;29800;55.942;37.314;2023-02-08T04:15:55;6.80;;;4.30;;
44137;SDS011;29800;55.942;37.314;2023-02-08T04:18:22;8.68;;;4.53;;
44137;SDS011;29800;55.942;37.314;2023-02-08T04:20:48;8.23;;;4.82;;
44137;SDS011;29800;55.942;37.314;2023-02-08T04:23:14;11.43;;;5.20;;
44137;SDS011;29800;55.942;37.314;2023-02-08T04:25:40;7.30;;;4.25;;
44137;SDS011;29800;55.942;37.314;2023-02-08T04:28:06;9.57;;;5.07;;
44137;SDS011;29800;55.942;37.314;2023-02-08T04:30:32;7.05;;;3.95;;
44137;SDS011;29800;55.942;37.314;2023-02-08T04:32:58;7.93;;;4.65;;
44137;SDS011;29800;55.942;37.314;2023-02-08T04:35:24;7.50;;;4.28;;
44137;SDS011;29800;55.942;37.314;2023-02-08T04:37:50;9.60;;;4.55;;
44137;SDS011;29800;55.942;37.314;2023-02-08T04:40:16;8.32;;;4.28;;
44137;SDS011;29800;55.942;37.314;2023-02-08T04:42:42;8.93;;;4.63;;
44137;SDS011;29800;55.942;37.314;2023-02-08T04:45:08;8.15;;;4.63;;
44137;SDS011;29800;55.942;37.314;2023-02-08T04:47:34;8.32;;;4.63;;
44137;SDS011;29800;55.942;37.314;2023-02-08T04:50:00;8.73;;;5.10;;
44137;SDS011;29800;55.942;37.314;2023-02-08T04:52:29;8.45;;;4.43;;
44137;SDS011;29800;55.942;37.314;2023-02-08T04:54:55;9.82;;;4.72;;
44137;SDS011;29800;55.942;37.314;2023-02-08T04:57:21;7.93;;;4.45;;
44137;SDS011;29800;55.942;37.314;2023-02-08T04:59:47;9.18;;;4.90;;
44137;SDS011;29800;55.942;37.314;2023-02-08T05:02:13;9.32;;;5.15;;
44137;SDS011;29800;55.942;37.314;2023-02-08T05:04:39;9.23;;;4.97;;
44137;SDS011;29800;55.942;37.314;2023-02-08T05:07:05;8.95;;;4.85;;
44137;SDS011;29800;55.942;37.314;2023-02-08T05:09:31;9.40;;;4.88;;
44137;SDS011;29800;55.942;37.314;2023-02-08T05:11:57;9.15;;;4.78;;
44137;SDS011;29800;55.942;37.314;2023-02-08T05:14:23;9.23;;;5.03;;
44137;SDS011;29800;55.942;37.314;2023-02-08T05:16:50;10.73;;;5.15;;
44137;SDS011;29800;55.942;37.314;2023-02-08T05:19:16;11.68;;;5.25;;
44137;SDS011;29800;55.942;37.314;2023-02-08T05:21:42;9.98;;;5.32;;
44137;SDS011;29800;55.942;37.314;2023-02-08T05:24:08;8.95;;;4.82;;
44137;SDS011;29800;55.942;37.314;2023-02-08T05:26:37;10.68;;;5.53;;
44137;SDS011;29800;55.942;37.314;2023-02-08T05:29:04;10.45;;;5.00;;
44137;SDS011;29800;55.942;37.314;2023-02-08T05:31:30;12.32;;;5.25;;
44137;SDS011;29800;55.942;37.314;2023-02-08T05:33:56;11.15;;;5.82;;
44137;SDS011;29800;55.942;37.314;2023-02-08T05:36:22;12.20;;;6.25;;
44137;SDS011;29800;55.942;37.314;2023-02-08T05:38:49;9.65;;;5.63;;
44137;SDS011;29800;55.942;37.314;2023-02-08T05:41:16;9.77;;;5.30;;
44137;SDS011;29800;55.942;37.314;2023-02-08T05:43:42;10.80;;;6.20;;
44137;SDS011;29800;55.942;37.314;2023-02-08T05:46:10;10.27;;;5.80;;
44137;SDS011;29800;55.942;37.314;2023-02-08T05:48:36;10.63;;;5.70;;
44137;SDS011;29800;55.942;37.314;2023-02-08T05:51:02;8.68;;;5.65;;
44137;SDS011;29800;55.942;37.314;2023-02-08T05:53:29;9.95;;;5.43;;
44137;SDS011;29800;55.942;37.314;2023-02-08T05:55:56;11.35;;;5.82;;
44137;SDS011;29800;55.942;37.314;2023-02-08T05:58:23;11.07;;;5.75;;
44137;SDS011;29800;55.942;37.314;2023-02-08T06:00:49;10.25;;;6.20;;
44137;SDS011;29800;55.942;37.314;2023-02-08T06:03:16;11.18;;;5.78;;
44137;SDS011;29800;55.942;37.314;2023-02-08T06:05:42;11.68;;;5.97;;
44137;SDS011;29800;55.942;37.314;2023-02-08T06:08:08;9.98;;;5.78;;
44137;SDS011;29800;55.942;37.314;2023-02-08T06:10:34;10.68;;;5.63;;
44137;SDS011;29800;55.942;37.314;2023-02-08T06:13:01;11.52;;;5.65;;
44137;SDS011;29800;55.942;37.314;2023-02-08T06:15:28;13.15;;;6.03;;
44137;SDS011;29800;55.942;37.314;2023-02-08T06:17:54;10.95;;;5.93;;
44137;SDS011;29800;55.942;37.314;2023-02-08T06:20:20;11.30;;;6.03;;
44137;SDS011;29800;55.942;37.314;2023-02-08T06:22:46;11.90;;;5.55;;
44137;SDS011;29800;55.942;37.314;2023-02-08T06:25:12;15.65;;;6.53;;
44137;SDS011;29800;55.942;37.314;2023-02-08T06:27:39;11.45;;;5.82;;
44137;SDS011;29800;55.942;37.314;2023-02-08T06:30:05;13.23;;;6.70;;
44137;SDS011;29800;55.942;37.314;2023-02-08T06:32:33;13.82;;;6.53;;
44137;SDS011;29800;55.942;37.314;2023-02-08T06:34:59;11.00;;;5.85;;
44137;SDS011;29800;55.942;37.314;2023-02-08T06:37:25;11.23;;;6.28;;
44137;SDS011;29800;55.942;37.314;2023-02-08T06:39:51;10.98;;;5.95;;
44137;SDS011;29800;55.942;37.314;2023-02-08T06:42:17;11.60;;;6.25;;
44137;SDS011;29800;55.942;37.314;2023-02-08T06:44:43;11.40;;;6.60;;
44137;SDS011;29800;55.942;37.314;2023-02-08T06:47:11;15.07;;;6.97;;
44137;SDS011;29800;55.942;37.314;2023-02-08T06:49:37;11.40;;;5.97;;
44137;SDS011;29800;55.942;37.314;2023-02-08T06:52:03;13.00;;;6.90;;
44137;SDS011;29800;55.942;37.314;2023-02-08T06:54:29;12.23;;;6.78;;
44137;SDS011;29800;55.942;37.314;2023-02-08T06:56:55;12.48;;;6.70;;
44137;SDS011;29800;55.942;37.314;2023-02-08T06:59:21;11.57;;;6.57;;
44137;SDS011;29800;55.942;37.314;2023-02-08T07:01:47;11.13;;;6.68;;
44137;SDS011;29800;55.942;37.314;2023-02-08T07:04:13;14.15;;;6.60;;
44137;SDS011;29800;55.942;37.314;2023-02-08T07:06:39;11.05;;;6.35;;
44137;SDS011;29800;55.942;37.314;2023-02-08T07:09:05;11.82;;;6.57;;
44137;SDS011;29800;55.942;37.314;2023-02-08T07:11:31;12.13;;;6.40;;
44137;SDS011;29800;55.942;37.314;2023-02-08T07:13:57;13.73;;;6.65;;
44137;SDS011;29800;55.942;37.314;2023-02-08T07:16:23;11.55;;;6.63;;
44137;SDS011;29800;55.942;37.314;2023-02-08T07:18:49;19.63;;;8.23;;
44137;SDS011;29800;55.942;37.314;2023-02-08T07:21:15;19.02;;;8.88;;
44137;SDS011;29800;55.942;37.314;2023-02-08T07:23:41;13.40;;;6.50;;
44137;SDS011;29800;55.942;37.314;2023-02-08T07:26:08;12.05;;;6.68;;
44137;SDS011;29800;55.942;37.314;2023-02-08T07:28:36;12.00;;;6.63;;
44137;SDS011;29800;55.942;37.314;2023-02-08T07:31:07;12.23;;;6.10;;
44137;SDS011;29800;55.942;37.314;2023-02-08T07:33:35;10.68;;;6.53;;
44137;SDS011;29800;55.942;37.314;2023-02-08T07:36:01;12.23;;;6.90;;
44137;SDS011;29800;55.942;37.314;2023-02-08T07:38:30;13.82;;;6.70;;
44137;SDS011;29800;55.942;37.314;2023-02-08T07:41:05;12.13;;;6.75;;
44137;SDS011;29800;55.942;37.314;2023-02-08T07:43:34;14.63;;;6.70;;
44137;SDS011;29800;55.942;37.314;2023-02-08T07:46:05;12.23;;;6.63;;
44137;SDS011;29800;55.942;37.314;2023-02-08T07:48:31;12.15;;;6.85;;
44137;SDS011;29800;55.942;37.314;2023-02-08T07:50:58;11.20;;;6.47;;
44137;SDS011;29800;55.942;37.314;2023-02-08T07:53:24;13.70;;;7.57;;
44137;SDS011;29800;55.942;37.314;2023-02-08T07:55:50;11.32;;;6.35;;
44137;SDS011;29800;55.942;37.314;2023-02-08T07:58:16;11.88;;;6.75;;
44137;SDS011;29800;55.942;37.314;2023-02-08T08:00:42;12.45;;;6.78;;
44137;SDS011;29800;55.942;37.314;2023-02-08T08:03:08;13.52;;;6.55;;
44137;SDS011;29800;55.942;37.314;2023-02-08T08:05:34;12.63;;;6.68;;
44137;SDS011;29800;55.942;37.314;2023-02-08T08:08:00;11.75;;;6.70;;
44137;SDS011;29800;55.942;37.314;2023-02-08T08:10:26;13.52;;;7.38;;
44137;SDS011;29800;55.942;37.314;2023-02-08T08:12:52;11.30;;;6.05;;
44137;SDS011;29800;55.942;37.314;2023-02-08T08:15:18;12.05;;;6.70;;
44137;SDS011;29800;55.942;37.314;2023-02-08T08:17:44;10.68;;;6.32;;
44137;SDS011;29800;55.942;37.314;2023-02-08T08:20:10;11.07;;;6.88;;
44137;SDS011;29800;55.942;37.314;2023-02-08T08:22:36;13.10;;;7.88;;
44137;SDS011;29800;55.942;37.314;2023-02-08T08:25:02;10.93;;;6.82;;
44137;SDS011;29800;55.942;37.314;2023-02-08T08:27:29;13.15;;;6.72;;
44137;SDS011;29800;55.942;37.314;2023-02-08T08:29:55;10.85;;;6.10;;
44137;SDS011;29800;55.942;37.314;2023-02-08T08:32:21;10.63;;;5.95;;
44137;SDS011;29800;55.942;37.314;2023-02-08T08:34:47;9.55;;;5.55;;
44137;SDS011;29800;55.942;37.314;2023-02-08T08:37:13;10.60;;;5.93;;
44137;SDS011;29800;55.942;37.314;2023-02-08T08:39:39;10.52;;;6.25;;
44137;SDS011;29800;55.942;37.314;2023-02-08T08:42:05;11.45;;;5.82;;
44137;SDS011;29800;55.942;37.314;2023-02-08T08:44:31;11.30;;;5.95;;
44137;SDS011;29800;55.942;37.314;2023-02-08T08:46:58;10.50;;;6.28;;
44137;SDS011;29800;55.942;37.314;2023-02-08T08:49:25;10.20;;;5.75;;
44137;SDS011;29800;55.942;37.314;2023-02-08T08:55:47;9.90;;;5.55;;
44137;SDS011;29800;55.942;37.314;2023-02-08T08:58:13;11.52;;;6.47;;
44137;SDS011;29800;55.942;37.314;2023-02-08T09:00:39;25.70;;;11.82;;
44137;SDS011;29800;55.942;37.314;2023-02-08T09:03:05;10.10;;;6.15;;
44137;SDS011;29800;55.942;37.314;2023-02-08T09:05:31;10.10;;;5.95;;
44137;SDS011;29800;55.942;37.314;2023-02-08T09:07:57;9.98;;;5.78;;
44137;SDS011;29800;55.942;37.314;2023-02-08T09:10:23;9.60;;;5.15;;
44137;SDS011;29800;55.942;37.314;2023-02-08T09:12:49;10.27;;;5.93;;
44137;SDS011;29800;55.942;37.314;2023-02-08T09:15:17;11.55;;;5.57;;
44137;SDS011;29800;55.942;37.314;2023-02-08T09:17:43;10.88;;;6.03;;
44137;SDS011;29800;55.942;37.314;2023-02-08T09:20:12;11.27;;;6.85;;
44137;SDS011;29800;55.942;37.314;2023-02-08T09:22:38;11.82;;;6.40;;
44137;SDS011;29800;55.942;37.314;2023-02-08T09:25:04;9.77;;;5.70;;
44137;SDS011;29800;55.942;37.314;2023-02-08T09:27:32;12.38;;;7.10;;
44137;SDS011;29800;55.942;37.314;2023-02-08T09:29:59;11.88;;;6.55;;
44137;SDS011;29800;55.942;37.314;2023-02-08T09:32:25;12.77;;;6.32;;
44137;SDS011;29800;55.942;37.314;2023-02-08T09:34:51;10.20;;;5.57;;
44137;SDS011;29800;55.942;37.314;2023-02-08T09:37:17;13.15;;;6.32;;
44137;SDS011;29800;55.942;37.314;2023-02-08T09:39:43;11.02;;;6.65;;
44137;SDS011;29800;55.942;37.314;2023-02-08T09:47:39;9.35;;;5.15;;
44137;SDS011;29800;55.942;37.314;2023-02-08T09:52:56;10.48;;;5.28;;
44137;SDS011;29800;55.942;37.314;2023-02-08T09:55:57;9.10;;;5.25;;
44137;SDS011;29800;55.942;37.314;2023-02-08T09:58:21;8.23;;;4.13;;
44137;SDS011;29800;55.942;37.314;2023-02-08T10:00:49;9.57;;;4.78;;
44137;SDS011;29800;55.942;37.314;2023-02-08T10:05:59;9.10;;;4.90;;
44137;SDS011;29800;55.942;37.314;2023-02-08T10:08:26;7.35;;;4.18;;
44137;SDS011;29800;55.942;37.314;2023-02-08T10:10:55;9.40;;;4.47;;
44137;SDS011;29800;55.942;37.314;2023-02-08T10:19:01;9.50;;;5.68;;
44137;SDS011;29800;55.942;37.314;2023-02-08T10:30:28;6.97;;;4.20;;
44137;SDS011;29800;55.942;37.314;2023-02-08T10:35:39;8.52;;;4.57;;
44137;SDS011;29800;55.942;37.314;2023-02-08T10:38:17;6.63;;;4.20;;
44137;SDS011;29800;55.942;37.314;2023-02-08T10:41:09;8.07;;;4.32;;
44137;SDS011;29800;55.942;37.314;2023-02-08T10:43:42;7.18;;;4.05;;
44137;SDS011;29800;55.942;37.314;2023-02-08T10:46:51;7.97;;;4.47;;
44137;SDS011;29800;55.942;37.314;2023-02-08T10:50:08;5.88;;;3.70;;
44137;SDS011;29800;55.942;37.314;2023-02-08T10:52:42;9.73;;;5.32;;
44137;SDS011;29800;55.942;37.314;2023-02-08T10:55:16;7.72;;;4.45;;
44137;SDS011;29800;55.942;37.314;2023-02-08T10:57:44;7.15;;;4.28;;
44137;SDS011;29800;55.942;37.314;2023-02-08T11:00:21;7.32;;;4.30;;
44137;SDS011;29800;55.942;37.314;2023-02-08T11:03:10;7.07;;;4.60;;
44137;SDS011;29800;55.942;37.314;2023-02-08T11:05:49;7.60;;;4.57;;
44137;SDS011;29800;55.942;37.314;2023-02-08T11:08:16;7.70;;;4.63;;
44137;SDS011;29800;55.942;37.314;2023-02-08T11:11:02;6.93;;;4.32;;
44137;SDS011;29800;55.942;37.314;2023-02-08T11:13:35;9.77;;;5.65;;
44137;SDS011;29800;55.942;37.314;2023-02-08T11:16:20;9.05;;;5.25;;
44137;SDS011;29800;55.942;37.314;2023-02-08T11:21:23;7.28;;;4.45;;
44137;SDS011;29800;55.942;37.314;2023-02-08T11:26:50;7.57;;;4.45;;
44137;SDS011;29800;55.942;37.314;2023-02-08T11:29:26;10.43;;;4.40;;
44137;SDS011;29800;55.942;37.314;2023-02-08T11:32:02;7.00;;;4.25;;
44137;SDS011;29800;55.942;37.314;2023-02-08T11:34:42;7.95;;;4.68;;
44137;SDS011;29800;55.942;37.314;2023-02-08T11:39:56;9.02;;;5.00;;
44137;SDS011;29800;55.942;37.314;2023-02-08T11:42:33;10.65;;;5.55;;
44137;SDS011;29800;55.942;37.314;2023-02-08T11:45:01;9.02;;;5.05;;
44137;SDS011;29800;55.942;37.314;2023-02-08T11:47:32;7.05;;;4.13;;
44137;SDS011;29800;55.942;37.314;2023-02-08T11:50:03;8.98;;;4.38;;
44137;SDS011;29800;55.942;37.314;2023-02-08T11:52:32;8.73;;;4.93;;
44137;SDS011;29800;55.942;37.314;2023-02-08T11:55:21;7.47;;;4.32;;
44137;SDS011;29800;55.942;37.314;2023-02-08T11:58:00;9.73;;;4.85;;
44137;SDS011;29800;55.942;37.314;2023-02-08T12:00:27;6.15;;;4.05;;
44137;SDS011;29800;55.942;37.314;2023-02-08T12:03:02;7.43;;;3.78;;
44137;SDS011;29800;55.942;37.314;2023-02-08T12:11:36;8.00;;;4.30;;
44137;SDS011;29800;55.942;37.314;2023-02-08T12:14:57;6.78;;;3.60;;
44137;SDS011;29800;55.942;37.314;2023-02-08T12:17:35;7.13;;;4.07;;
44137;SDS011;29800;55.942;37.314;2023-02-08T12:34:26;6.80;;;3.80;;
44137;SDS011;29800;55.942;37.314;2023-02-08T12:48:27;6.25;;;3.35;;
44137;SDS011;29800;55.942;37.314;2023-02-08T12:51:01;8.20;;;3.95;;
44137;SDS011;29800;55.942;37.314;2023-02-08T12:54:08;6.72;;;3.70;;
44137;SDS011;29800;55.942;37.314;2023-02-08T12:56:42;6.47;;;3.47;;
44137;SDS011;29800;55.942;37.314;2023-02-08T12:59:20;5.07;;;3.00;;
44137;SDS011;29800;55.942;37.314;2023-02-08T13:01:52;5.65;;;3.03;;
44137;SDS011;29800;55.942;37.314;2023-02-08T13:04:37;5.35;;;3.47;;
44137;SDS011;29800;55.942;37.314;2023-02-08T13:07:10;7.03;;;3.60;;
44137;SDS011;29800;55.942;37.314;2023-02-08T13:10:11;6.15;;;3.60;;
44137;SDS011;29800;55.942;37.314;2023-02-08T13:12:41;6.70;;;3.30;;
44137;SDS011;29800;55.942;37.314;2023-02-08T13:15:19;5.45;;;3.65;;
44137;SDS011;29800;55.942;37.314;2023-02-08T13:18:11;4.75;;;3.10;;
44137;SDS011;29800;55.942;37.314;2023-02-08T13:25:52;6.82;;;3.75;;
44137;SDS011;29800;55.942;37.314;2023-02-08T13:28:22;5.70;;;3.22;;
44137;SDS011;29800;55.942;37.314;2023-02-08T13:31:05;7.72;;;3.38;;
44137;SDS011;29800;55.942;37.314;2023-02-08T13:33:43;7.43;;;3.95;;
44137;SDS011;29800;55.942;37.314;2023-02-08T13:36:33;7.35;;;4.28;;
44137;SDS011;29800;55.942;37.314;2023-02-08T13:39:03;16.08;;;7.65;;
44137;SDS011;29800;55.942;37.314;2023-02-08T13:41:32;20.38;;;9.77;;
44137;SDS011;29800;55.942;37.314;2023-02-08T13:46:34;6.40;;;3.53;;
44137;SDS011;29800;55.942;37.314;2023-02-08T13:49:05;5.72;;;3.50;;
44137;SDS011;29800;55.942;37.314;2023-02-08T13:56:57;6.82;;;3.58;;
44137;SDS011;29800;55.942;37.314;2023-02-08T14:04:37;5.97;;;3.47;;
44137;SDS011;29800;55.942;37.314;2023-02-08T14:07:05;5.80;;;3.40;;
44137;SDS011;29800;55.942;37.314;2023-02-08T14:10:14;6.93;;;3.30;;
44137;SDS011;29800;55.942;37.314;2023-02-08T14:15:35;8.85;;;4.25;;
44137;SDS011;29800;55.942;37.314;2023-02-08T14:18:03;5.70;;;3.40;;
44137;SDS011;29800;55.942;37.314;2023-02-08T14:20:44;6.25;;;3.53;;
44137;SDS011;29800;55.942;37.314;2023-02-08T14:23:25;6.57;;;3.80;;
44137;SDS011;29800;55.942;37.314;2023-02-08T14:25:54;6.78;;;3.53;;
44137;SDS011;29800;55.942;37.314;2023-02-08T14:28:24;6.45;;;3.28;;
44137;SDS011;29800;55.942;37.314;2023-02-08T14:30:54;7.47;;;3.60;;
44137;SDS011;29800;55.942;37.314;2023-02-08T14:33:24;5.32;;;3.22;;
44137;SDS011;29800;55.942;37.314;2023-02-08T14:35:58;6.28;;;3.38;;
44137;SDS011;29800;55.942;37.314;2023-02-08T14:39:20;7.00;;;3.90;;
44137;SDS011;29800;55.942;37.314;2023-02-08T14:49:51;6.75;;;4.18;;
44137;SDS011;29800;55.942;37.314;2023-02-08T14:52:28;6.07;;;3.80;;
44137;SDS011;29800;55.942;37.314;2023-02-08T14:55:15;5.68;;;3.42;;
44137;SDS011;29800;55.942;37.314;2023-02-08T14:57:44;4.55;;;3.15;;
44137;SDS011;29800;55.942;37.314;2023-02-08T15:00:31;6.60;;;3.10;;
44137;SDS011;29800;55.942;37.314;2023-02-08T15:03:00;7.35;;;3.40;;
44137;SDS011;29800;55.942;37.314;2023-02-08T15:05:30;6.38;;;3.60;;
44137;SDS011;29800;55.942;37.314;2023-02-08T15:08:03;7.03;;;3.40;;
44137;SDS011;29800;55.942;37.314;2023-02-08T15:10:30;9.43;;;3.70;;
44137;SDS011;29800;55.942;37.314;2023-02-08T15:12:58;5.20;;;3.40;;
44137;SDS011;29800;55.942;37.314;2023-02-08T15:15:29;8.60;;;4.03;;
44137;SDS011;29800;55.942;37.314;2023-02-08T15:17:58;8.68;;;4.20;;
44137;SDS011;29800;55.942;37.314;2023-02-08T15:20:31;10.23;;;5.03;;
44137;SDS011;29800;55.942;37.314;2023-02-08T15:23:03;22.40;;;10.68;;
44137;SDS011;29800;55.942;37.314;2023-02-08T15:25:32;30.85;;;12.00;;
44137;SDS011;29800;55.942;37.314;2023-02-08T15:28:22;17.15;;;7.28;;
44137;SDS011;29800;55.942;37.314;2023-02-08T15:31:08;8.27;;;4.32;;
44137;SDS011;29800;55.942;37.314;2023-02-08T15:33:39;7.15;;;4.07;;
44137;SDS011;29800;55.942;37.314;2023-02-08T15:36:14;5.65;;;3.35;;
44137;SDS011;29800;55.942;37.314;2023-02-08T15:38:42;6.50;;;3.42;;
44137;SDS011;29800;55.942;37.314;2023-02-08T15:41:11;6.43;;;3.75;;
44137;SDS011;29800;55.942;37.314;2023-02-08T15:43:48;7.65;;;3.78;;
44137;SDS011;29800;55.942;37.314;2023-02-08T15:46:15;7.35;;;3.70;;
44137;SDS011;29800;55.942;37.314;2023-02-08T15:48:50;9.88;;;3.80;;
44137;SDS011;29800;55.942;37.314;2023-02-08T15:51:17;8.15;;;3.88;;
44137;SDS011;29800;55.942;37.314;2023-02-08T15:53:49;8.15;;;4.15;;
44137;SDS011;29800;55.942;37.314;2023-02-08T15:56:19;8.73;;;4.30;;
44137;SDS011;29800;55.942;37.314;2023-02-08T15:58:53;6.50;;;4.10;;
44137;SDS011;29800;55.942;37.314;2023-02-08T16:01:23;7.72;;;4.45;;
44137;SDS011;29800;55.942;37.314;2023-02-08T16:03:51;9.50;;;4.78;;
44137;SDS011;29800;55.942;37.314;2023-02-08T16:06:27;10.35;;;5.88;;
44137;SDS011;29800;55.942;37.314;2023-02-08T16:11:31;13.07;;;5.88;;
44137;SDS011;29800;55.942;37.314;2023-02-08T16:14:00;10.18;;;5.65;;
44137;SDS011;29800;55.942;37.314;2023-02-08T16:21:45;6.72;;;3.58;;
44137;SDS011;29800;55.942;37.314;2023-02-08T16:31:57;6.85;;;4.22;;
44137;SDS011;29800;55.942;37.314;2023-02-08T16:34:32;11.38;;;6.20;;
44137;SDS011;29800;55.942;37.314;2023-02-08T16:37:00;7.20;;;3.90;;
44137;SDS011;29800;55.942;37.314;2023-02-08T16:42:04;6.68;;;3.70;;
44137;SDS011;29800;55.942;37.314;2023-02-08T16:44:57;7.55;;;3.83;;
44137;SDS011;29800;55.942;37.314;2023-02-08T16:47:27;7.15;;;4.03;;
44137;SDS011;29800;55.942;37.314;2023-02-08T16:50:01;7.03;;;3.30;;
44137;SDS011;29800;55.942;37.314;2023-02-08T16:52:29;7.32;;;4.07;;
44137;SDS011;29800;55.942;37.314;2023-02-08T16:54:55;7.47;;;3.95;;
44137;SDS011;29800;55.942;37.314;2023-02-08T16:57:23;6.57;;;3.85;;
44137;SDS011;29800;55.942;37.314;2023-02-08T16:59:49;10.80;;;3.92;;
44137;SDS011;29800;55.942;37.314;2023-02-08T17:02:16;8.23;;;3.75;;
44137;SDS011;29800;55.942;37.314;2023-02-08T17:04:42;7.47;;;3.88;;
44137;SDS011;29800;55.942;37.314;2023-02-08T17:07:10;6.97;;;3.88;;
44137;SDS011;29800;55.942;37.314;2023-02-08T17:09:45;6.85;;;3.85;;
44137;SDS011;29800;55.942;37.314;2023-02-08T17:12:11;5.35;;;3.30;;
44137;SDS011;29800;55.942;37.314;2023-02-08T17:14:37;6.07;;;3.58;;
44137;SDS011;29800;55.942;37.314;2023-02-08T17:17:03;7.68;;;3.92;;
44137;SDS011;29800;55.942;37.314;2023-02-08T17:19:29;9.30;;;4.13;;
44137;SDS011;29800;55.942;37.314;2023-02-08T17:21:55;5.70;;;3.47;;
44137;SDS011;29800;55.942;37.314;2023-02-08T17:24:21;11.32;;;6.03;;
44137;SDS011;29800;55.942;37.314;2023-02-08T17:26:47;7.03;;;4.20;;
44137;SDS011;29800;55.942;37.314;2023-02-08T17:29:13;12.57;;;5.32;;
44137;SDS011;29800;55.942;37.314;2023-02-08T17:31:39;8.23;;;4.28;;
44137;SDS011;29800;55.942;37.314;2023-02-08T17:34:05;7.18;;;4.00;;
44137;SDS011;29800;55.942;37.314;2023-02-08T17:36:33;5.43;;;3.50;;
44137;SDS011;29800;55.942;37.314;2023-02-08T17:39:01;6.57;;;3.80;;
44137;SDS011;29800;55.942;37.314;2023-02-08T17:41:29;6.20;;;3.85;;